Time;durP1;ratioP1;P1;durP2;ratioP2;P2;SDS_P1;SDS_P2;PMS_P1;PMS_P2;Temp;Humidity;BMP_temperature;BMP_pressure;BME280_temperature;BME280_humidity;BME280_pressure;Samples;Min_cycle;Max_cycle;Signal;HPM_P1;HPM_P2
2023/01/04 00:01:24;;;;;;;1.45;0.98;;;;;;;9.77;100.00;101783.34;5050308;28;20048;-77
2023/01/04 00:03:50;;;;;;;1.42;0.70;;;;;;;9.78;100.00;101790.47;5056669;28;20054;-76
2023/01/04 00:06:18;;;;;;;3.25;1.50;;;;;;;9.77;100.00;101786.91;5050203;28;20052;-75
2023/01/04 00:08:45;;;;;;;8.13;1.90;;;;;;;9.86;100.00;101786.69;5047805;28;20127;-75
2023/01/04 00:11:16;;;;;;;9.20;1.52;;;;;;;9.91;100.00;101772.53;5058219;28;20050;-76
2023/01/04 00:13:44;;;;;;;3.97;1.38;;;;;;;9.88;100.00;101779.63;5048391;28;20122;-76
2023/01/04 00:16:16;;;;;;;6.30;1.98;;;;;;;9.83;100.00;101785.44;5053701;28;20055;-75
2023/01/04 00:18:44;;;;;;;4.22;1.23;;;;;;;9.87;100.00;101753.16;5054864;28;20048;-75
2023/01/04 00:21:13;;;;;;;9.88;2.03;;;;;;;9.94;100.00;101771.81;5053721;28;20138;-74
2023/01/04 00:23:43;;;;;;;3.15;1.25;;;;;;;9.91;100.00;101761.50;5050913;28;20059;-75
2023/01/04 00:26:13;;;;;;;4.47;0.98;;;;;;;9.95;100.00;101754.06;5048422;28;20908;-76
2023/01/04 00:28:40;;;;;;;8.77;2.00;;;;;;;9.98;100.00;101756.91;5052710;28;22161;-77
2023/01/04 00:31:09;;;;;;;5.43;1.52;;;;;;;9.94;100.00;101750.50;5056588;28;20051;-73
2023/01/04 00:33:36;;;;;;;4.50;1.55;;;;;;;9.98;100.00;101751.38;5051465;28;20157;-76
2023/01/04 00:36:09;;;;;;;1.40;0.98;;;;;;;10.00;100.00;101746.25;5048286;28;20067;-75
2023/01/04 00:38:37;;;;;;;5.28;1.42;;;;;;;9.93;100.00;101731.53;5055130;28;20044;-77
2023/01/04 00:41:05;;;;;;;6.85;1.25;;;;;;;9.99;100.00;101739.13;5050085;28;20048;-75
2023/01/04 00:43:32;;;;;;;0.52;0.52;;;;;;;10.07;100.00;101718.78;5056054;28;20067;-77
2023/01/04 00:46:00;;;;;;;2.72;1.23;;;;;;;10.08;100.00;101708.50;5050725;28;20052;-75
2023/01/04 00:48:28;;;;;;;4.68;1.27;;;;;;;10.00;100.00;101704.78;5049313;28;20048;-75
2023/01/04 00:50:55;;;;;;;4.80;1.17;;;;;;;10.03;100.00;101692.97;5050927;28;20149;-75
2023/01/04 00:53:21;;;;;;;4.40;1.30;;;;;;;10.02;100.00;101696.09;5052872;28;20060;-74
2023/01/04 00:55:48;;;;;;;4.65;1.80;;;;;;;10.03;100.00;101703.25;5062079;28;20052;-75
2023/01/04 00:58:14;;;;;;;5.00;1.70;;;;;;;10.01;100.00;101691.75;5052800;28;20055;-78
2023/01/04 01:00:41;;;;;;;1.90;0.88;;;;;;;10.03;100.00;101687.44;5057015;28;20048;-74
2023/01/04 01:03:08;;;;;;;3.03;1.15;;;;;;;9.99;100.00;101678.28;5066930;28;20055;-75
2023/01/04 01:05:35;;;;;;;3.90;1.15;;;;;;;9.97;100.00;101666.81;5054338;28;20060;-74
2023/01/04 01:08:23;;;;;;;6.55;1.60;;;;;;;10.02;100.00;101663.75;5057403;28;20044;-74
2023/01/04 01:10:49;;;;;;;2.47;1.02;;;;;;;9.92;100.00;101655.25;5049946;28;20047;-74
2023/01/04 01:13:16;;;;;;;6.05;1.52;;;;;;;10.00;100.00;101651.47;5050168;28;20053;-75
2023/01/04 01:15:43;;;;;;;2.53;1.17;;;;;;;9.86;100.00;101660.31;5051190;28;20051;-77
2023/01/04 01:18:10;;;;;;;4.43;1.30;;;;;;;9.86;100.00;101654.78;5057950;28;20873;-75
2023/01/04 01:20:42;;;;;;;5.10;0.82;;;;;;;9.82;100.00;101659.44;5054467;28;20053;-75
2023/01/04 01:23:13;;;;;;;10.13;1.50;;;;;;;9.68;100.00;101650.94;5058015;28;20068;-75
2023/01/04 01:25:41;;;;;;;1.83;0.80;;;;;;;9.75;100.00;101641.94;5082285;28;20048;-76
2023/01/04 01:28:08;;;;;;;9.15;2.10;;;;;;;9.78;100.00;101633.72;5071896;28;20132;-73
2023/01/04 01:30:39;;;;;;;9.73;2.03;;;;;;;9.70;100.00;101634.78;5073797;28;20155;-74
2023/01/04 01:33:05;;;;;;;9.43;1.75;;;;;;;9.69;100.00;101622.13;5073484;28;20048;-74
2023/01/04 01:35:33;;;;;;;3.28;1.40;;;;;;;9.55;100.00;101646.75;5078627;28;20044;-73
2023/01/04 01:37:59;;;;;;;4.03;1.55;;;;;;;9.64;100.00;101619.69;5067551;28;20053;-75
2023/01/04 01:40:26;;;;;;;5.38;1.33;;;;;;;9.58;100.00;101610.09;5067958;28;20055;-73
2023/01/04 01:42:53;;;;;;;4.38;1.45;;;;;;;9.62;100.00;101621.22;5068162;28;20139;-74
2023/01/04 01:45:31;;;;;;;4.03;1.60;;;;;;;9.52;100.00;101628.13;5076149;28;20040;-74
2023/01/04 01:48:05;;;;;;;3.70;1.45;;;;;;;9.51;100.00;101612.72;5069599;28;20058;-74
2023/01/04 01:50:37;;;;;;;7.07;1.97;;;;;;;9.58;100.00;101598.22;5067488;28;20562;-74
2023/01/04 01:53:07;;;;;;;3.88;1.30;;;;;;;9.47;100.00;101611.06;5073303;28;20045;-73
2023/01/04 01:55:35;;;;;;;10.00;1.83;;;;;;;9.54;100.00;101603.72;5075436;28;20058;-74
2023/01/04 01:58:05;;;;;;;2.45;1.27;;;;;;;9.54;100.00;101598.19;5068269;28;20123;-72
2023/01/04 02:00:31;;;;;;;5.35;1.08;;;;;;;9.49;100.00;101614.28;5076787;28;20518;-74
2023/01/04 02:03:05;;;;;;;5.82;1.70;;;;;;;9.41;100.00;101613.34;5073652;28;20075;-71
2023/01/04 02:05:33;;;;;;;8.90;2.13;;;;;;;9.34;100.00;101613.22;5067419;28;20127;-76
2023/01/04 02:08:01;;;;;;;1.95;1.10;;;;;;;9.39;100.00;101609.38;5075810;28;20044;-73
2023/01/04 02:10:29;;;;;;;11.63;2.58;;;;;;;9.37;100.00;101608.91;5067867;28;20416;-75
2023/01/04 02:12:56;;;;;;;6.90;2.10;;;;;;;9.31;100.00;101626.94;5067610;28;20053;-75
2023/01/04 02:15:28;;;;;;;8.57;1.90;;;;;;;9.27;100.00;101632.44;5067453;28;20045;-75
2023/01/04 02:18:07;;;;;;;3.85;1.52;;;;;;;9.21;100.00;101617.31;5076940;28;20052;-74
2023/01/04 02:20:41;;;;;;;5.50;2.28;;;;;;;9.27;100.00;101601.25;5075473;28;20052;-75
2023/01/04 02:23:21;;;;;;;2.40;1.10;;;;;;;9.21;100.00;101594.44;5075610;28;20041;-75
2023/01/04 02:26:25;;;;;;;10.75;2.00;;;;;;;9.21;100.00;101595.22;5067519;28;20063;-74
2023/01/04 02:29:13;;;;;;;3.15;1.35;;;;;;;9.10;100.00;101583.19;5070114;28;20051;-75
2023/01/04 02:31:48;;;;;;;7.20;2.17;;;;;;;9.09;100.00;101589.88;5066821;28;20048;-75
2023/01/04 02:34:32;;;;;;;2.47;1.48;;;;;;;9.05;100.00;101588.22;5072663;28;20068;-75
2023/01/04 02:37:19;;;;;;;5.38;2.08;;;;;;;9.08;100.00;101574.47;5075127;28;20044;-75
2023/01/04 02:39:54;;;;;;;5.88;2.03;;;;;;;9.04;100.00;101565.31;5067506;28;20426;-73
2023/01/04 02:45:35;;;;;;;9.30;1.65;;;;;;;9.04;100.00;101561.78;5074058;28;20132;-72
2023/01/04 02:51:04;;;;;;;4.40;1.58;;;;;;;9.13;100.00;101554.84;5066303;28;20043;-76
2023/01/04 02:53:36;;;;;;;4.97;1.77;;;;;;;9.09;100.00;101558.72;5068645;28;20060;-75
2023/01/04 02:56:11;;;;;;;7.28;2.10;;;;;;;9.08;100.00;101541.34;5067977;28;20048;-75
2023/01/04 02:58:44;;;;;;;;;;;;;;;9.11;100.00;101556.41;5067106;28;20163;-74
2023/01/04 03:07:38;;;;;;;9.25;1.90;;;;;;;9.11;100.00;101540.59;5075825;28;20047;-76
2023/01/04 03:10:12;;;;;;;6.20;1.45;;;;;;;9.19;100.00;101530.50;5070692;28;20500;-73
2023/01/04 03:12:46;;;;;;;4.78;1.75;;;;;;;9.14;100.00;101528.84;5070754;28;20053;-74
2023/01/04 03:15:18;;;;;;;5.43;1.67;;;;;;;9.18;100.00;101513.13;5068326;28;20048;-73
2023/01/04 03:17:58;;;;;;;5.47;1.95;;;;;;;9.27;100.00;101513.69;5070984;28;20269;-73
2023/01/04 03:20:29;;;;;;;3.80;1.33;;;;;;;9.26;100.00;101517.59;5070411;28;20063;-74
2023/01/04 03:37:36;;;;;;;3.30;1.65;;;;;;;9.40;100.00;101481.13;5072091;28;20052;-73
2023/01/04 03:49:40;;;;;;;6.35;2.33;;;;;;;9.59;100.00;101472.75;5070556;28;20048;-74
2023/01/04 03:52:10;;;;;;;9.20;2.33;;;;;;;9.65;100.00;101465.75;5076371;28;20063;-74
2023/01/04 03:54:40;;;;;;;1.98;1.10;;;;;;;9.65;100.00;101485.84;5070006;28;20052;-75
2023/01/04 03:57:08;;;;;;;7.00;3.38;;;;;;;9.61;100.00;101479.50;5071404;28;20080;-73
2023/01/04 03:59:48;;;;;;;5.40;2.15;;;;;;;9.66;100.00;101472.84;5069592;28;20053;-75
2023/01/04 04:02:21;;;;;;;10.55;1.63;;;;;;;9.68;100.00;101465.78;5069955;28;20515;-75
2023/01/04 04:10:17;;;;;;;2.10;1.20;;;;;;;9.71;100.00;101417.25;5074634;28;20057;-73
2023/01/04 04:12:44;;;;;;;6.30;1.83;;;;;;;9.66;100.00;101418.38;5070573;28;20048;-73
2023/01/04 04:15:11;;;;;;;15.82;1.65;;;;;;;9.69;100.00;101405.78;5069733;28;20151;-74
2023/01/04 04:17:37;;;;;;;10.70;2.60;;;;;;;9.61;100.00;101402.13;5068902;28;20058;-73
2023/01/04 04:20:05;;;;;;;7.97;1.95;;;;;;;9.72;100.00;101392.00;5070671;28;20051;-74
2023/01/04 04:22:31;;;;;;;12.27;2.30;;;;;;;9.71;100.00;101412.53;5069481;28;20048;-75
2023/01/04 04:24:58;;;;;;;6.07;1.50;;;;;;;9.66;100.00;101398.25;5069646;28;20041;-75
2023/01/04 04:27:24;;;;;;;4.30;1.52;;;;;;;9.70;100.00;101413.72;5069042;28;20044;-73
2023/01/04 04:29:51;;;;;;;4.70;1.50;;;;;;;9.70;100.00;101402.66;5069620;28;20059;-74
2023/01/04 04:32:17;;;;;;;8.63;1.50;;;;;;;9.71;100.00;101400.66;5077518;28;20056;-74
2023/01/04 04:34:44;;;;;;;3.95;1.83;;;;;;;9.71;100.00;101404.22;5067963;28;20041;-73
2023/01/04 04:37:10;;;;;;;5.28;1.65;;;;;;;9.80;100.00;101392.91;5068993;28;20052;-74
2023/01/04 04:39:37;;;;;;;9.18;1.25;;;;;;;9.79;100.00;101405.13;5071589;28;20055;-75
2023/01/04 04:42:03;;;;;;;3.17;1.85;;;;;;;9.75;100.00;101393.22;5068493;28;20049;-73
2023/01/04 04:44:32;;;;;;;6.47;1.95;;;;;;;9.85;100.00;101382.31;5069131;28;20079;-73
2023/01/04 04:46:59;;;;;;;5.03;1.80;;;;;;;9.75;100.00;101391.25;5068807;28;20054;-74
2023/01/04 04:49:25;;;;;;;5.00;1.63;;;;;;;9.74;100.00;101388.88;5069656;28;20066;-73
2023/01/04 04:51:52;;;;;;;2.88;1.27;;;;;;;9.78;100.00;101382.22;5069307;28;20040;-73
2023/01/04 04:54:20;;;;;;;3.00;1.13;;;;;;;9.80;100.00;101396.47;5071808;28;20094;-74
2023/01/04 04:56:48;;;;;;;3.50;1.75;;;;;;;9.91;100.00;101374.47;5068676;28;20051;-74
2023/01/04 04:59:15;;;;;;;2.85;1.50;;;;;;;9.91;100.00;101371.69;5068781;28;20601;-75
2023/01/04 05:01:42;;;;;;;1.95;0.95;;;;;;;9.94;100.00;101368.19;5071232;28;20048;-72
2023/01/04 05:04:08;;;;;;;3.80;1.60;;;;;;;9.91;100.00;101391.84;5073852;28;20055;-73
2023/01/04 05:06:35;;;;;;;4.78;1.17;;;;;;;9.97;100.00;101373.78;5067785;28;20059;-74
2023/01/04 05:09:02;;;;;;;3.80;1.08;;;;;;;9.98;100.00;101378.13;5075984;28;20051;-74
2023/01/04 05:14:13;;;;;;;1.05;0.90;;;;;;;10.07;100.00;101359.31;5068270;28;20081;-72
2023/01/04 05:16:39;;;;;;;5.18;1.17;;;;;;;10.15;100.00;101366.50;5067566;28;20056;-72
2023/01/04 05:19:06;;;;;;;3.05;1.27;;;;;;;10.20;100.00;101379.19;5073529;28;20583;-73
2023/01/04 05:21:33;;;;;;;1.33;0.70;;;;;;;10.27;100.00;101351.59;5069889;28;20056;-72
2023/01/04 05:23:59;;;;;;;2.25;0.70;;;;;;;10.32;100.00;101354.00;5073732;28;20122;-74
2023/01/04 05:26:25;;;;;;;0.85;0.85;;;;;;;10.42;100.00;101359.66;5084271;28;20048;-77
2023/01/04 05:28:52;;;;;;;4.00;1.23;;;;;;;10.51;100.00;101364.88;5067622;28;20147;-73
2023/01/04 05:31:20;;;;;;;7.13;1.38;;;;;;;10.59;100.00;101379.59;5068638;28;20048;-74
2023/01/04 05:33:47;;;;;;;1.55;1.08;;;;;;;10.66;100.00;101368.59;5069843;28;20051;-72
2023/01/04 05:36:13;;;;;;;3.40;1.20;;;;;;;10.68;100.00;101355.94;5068293;28;20055;-74
2023/01/04 05:38:40;;;;;;;1.65;0.95;;;;;;;10.81;100.00;101343.41;5066863;28;20139;-74
2023/01/04 05:42:23;;;;;;;2.30;1.27;;;;;;;10.88;100.00;101370.34;5067929;28;20056;-75
2023/01/04 05:43:53;;;;;;;0.50;0.50;;;;;;;11.03;100.00;101344.38;5067547;28;20047;-74
2023/01/04 05:46:20;;;;;;;2.50;0.90;;;;;;;11.00;100.00;101345.91;5066181;28;20127;-74
2023/01/04 05:48:47;;;;;;;0.55;0.50;;;;;;;11.02;100.00;101345.53;5073700;28;21140;-72
2023/01/04 05:51:13;;;;;;;2.47;1.27;;;;;;;11.02;100.00;101351.06;5070413;28;20059;-72
2023/01/04 05:53:40;;;;;;;0.75;0.70;;;;;;;11.14;100.00;101336.91;5076138;28;20052;-72
2023/01/04 05:56:06;;;;;;;2.47;0.88;;;;;;;11.09;100.00;101334.47;5068308;28;20044;-72
2023/01/04 05:58:33;;;;;;;0.32;0.32;;;;;;;11.14;100.00;101303.66;5071425;28;20431;-72
2023/01/04 06:00:59;;;;;;;0.40;0.40;;;;;;;11.20;100.00;101305.69;5067607;28;20048;-72
2023/01/04 06:03:26;;;;;;;1.00;0.63;;;;;;;11.11;100.00;101316.31;5067472;28;20051;-73
2023/01/04 06:05:52;;;;;;;3.15;0.95;;;;;;;11.19;100.00;101308.84;5067391;28;20693;-73
2023/01/04 06:08:19;;;;;;;1.83;0.98;;;;;;;11.22;100.00;101316.38;5067889;28;20048;-71
2023/01/04 06:10:52;;;;;;;5.22;1.05;;;;;;;11.20;100.00;101302.91;5071486;28;20055;-72
2023/01/04 06:13:19;;;;;;;1.02;0.90;;;;;;;11.26;100.00;101301.38;5071869;28;20045;-72
2023/01/04 06:15:45;;;;;;;1.10;0.60;;;;;;;11.33;100.00;101278.44;5074297;28;20048;-73
2023/01/04 06:18:12;;;;;;;1.60;1.05;;;;;;;11.27;100.00;101291.84;5068147;28;20040;-73
2023/01/04 06:20:40;;;;;;;1.65;1.27;;;;;;;11.33;100.00;101284.78;5067714;28;20135;-74
2023/01/04 06:23:07;;;;;;;0.80;0.70;;;;;;;11.42;100.00;101279.69;5068981;28;20048;-73
2023/01/04 06:25:34;;;;;;;1.40;0.80;;;;;;;11.42;100.00;101278.88;5066552;28;20080;-72
2023/01/04 06:28:00;;;;;;;1.02;0.65;;;;;;;11.47;100.00;101272.97;5068586;28;20605;-72
2023/01/04 06:30:27;;;;;;;2.30;0.93;;;;;;;11.46;100.00;101263.06;5070069;28;20045;-73
2023/01/04 06:32:54;;;;;;;0.77;0.73;;;;;;;11.57;100.00;101261.09;5067233;28;20105;-72
2023/01/04 06:35:21;;;;;;;2.22;1.00;;;;;;;11.51;100.00;101265.47;5067723;28;20166;-73
2023/01/04 06:37:47;;;;;;;2.70;1.20;;;;;;;11.50;100.00;101313.75;5068207;28;20127;-71
2023/01/04 06:40:14;;;;;;;2.47;1.02;;;;;;;11.60;100.00;101252.81;5068751;28;20522;-71
2023/01/04 06:42:46;;;;;;;3.00;0.60;;;;;;;11.67;100.00;101255.66;5073149;28;21616;-71
2023/01/04 06:45:14;;;;;;;3.58;0.90;;;;;;;11.59;100.00;101254.00;5070861;28;20059;-73
2023/01/04 06:47:41;;;;;;;1.98;0.60;;;;;;;11.67;100.00;101268.69;5071245;28;20052;-72
2023/01/04 06:50:08;;;;;;;0.80;0.68;;;;;;;11.63;100.00;101254.84;5077349;28;20044;-71
2023/01/04 06:52:35;;;;;;;1.60;0.77;;;;;;;11.69;100.00;101246.94;5074486;28;20062;-73
2023/01/04 06:55:02;;;;;;;1.15;0.85;;;;;;;11.60;100.00;101263.91;5077193;28;20044;-71
2023/01/04 06:57:28;;;;;;;0.98;0.60;;;;;;;11.64;100.00;101253.66;5072892;28;20051;-72
2023/01/04 06:59:55;;;;;;;3.03;1.25;;;;;;;11.57;100.00;101278.53;5082787;28;20049;-72
2023/01/04 07:02:21;;;;;;;3.83;0.82;;;;;;;11.77;100.00;101270.72;5071573;28;20051;-72
2023/01/04 07:04:48;;;;;;;1.30;0.75;;;;;;;11.67;100.00;101268.69;5070790;28;20084;-72
2023/01/04 07:07:15;;;;;;;0.73;0.63;;;;;;;11.74;100.00;101250.13;5078362;28;20113;-73
2023/01/04 07:09:41;;;;;;;2.22;0.68;;;;;;;11.73;100.00;101251.31;5071411;28;20127;-73
2023/01/04 07:12:08;;;;;;;1.00;0.82;;;;;;;11.74;100.00;101241.81;5071032;28;20056;-74
2023/01/04 07:14:34;;;;;;;0.85;0.60;;;;;;;11.79;100.00;101252.53;5082455;28;20054;-71
2023/01/04 07:17:01;;;;;;;0.85;0.40;;;;;;;11.79;100.00;101249.75;5075625;28;20044;-72
2023/01/04 07:19:27;;;;;;;1.05;0.70;;;;;;;11.86;100.00;101248.97;5070478;28;20471;-71
2023/01/04 07:21:54;;;;;;;0.82;0.73;;;;;;;11.89;100.00;101260.06;5071723;28;20449;-72
2023/01/04 07:24:21;;;;;;;1.88;1.00;;;;;;;11.86;100.00;101247.00;5069964;28;20079;-72
2023/01/04 07:26:55;;;;;;;1.00;0.90;;;;;;;11.79;100.00;101265.59;5073848;28;20052;-72
2023/01/04 07:29:21;;;;;;;0.82;0.70;;;;;;;11.85;100.00;101269.56;5084336;28;20055;-72
2023/01/04 07:31:50;;;;;;;3.10;0.88;;;;;;;11.78;100.00;101272.31;5069884;28;20541;-73
2023/01/04 07:34:18;;;;;;;1.08;0.93;;;;;;;11.65;100.00;101273.84;5071172;28;20052;-72
2023/01/04 07:36:46;;;;;;;1.63;1.00;;;;;;;11.65;100.00;101262.78;5070372;28;20045;-72
2023/01/04 07:39:13;;;;;;;4.63;1.10;;;;;;;11.54;100.00;101262.69;5073615;28;20110;-72
2023/01/04 07:41:40;;;;;;;4.18;1.38;;;;;;;11.54;100.00;101275.78;5077485;28;20052;-72
2023/01/04 07:44:08;;;;;;;1.67;0.68;;;;;;;11.58;100.00;101254.41;5070467;28;20058;-73
2023/01/04 07:46:35;;;;;;;3.67;1.05;;;;;;;11.55;100.00;101253.22;5070726;28;20052;-72
2023/01/04 07:49:02;;;;;;;2.10;0.90;;;;;;;11.52;100.00;101253.19;5081522;28;20044;-73
2023/01/04 07:51:30;;;;;;;1.40;0.82;;;;;;;11.63;100.00;101242.94;5093750;28;20051;-71
2023/01/04 07:53:57;;;;;;;1.95;0.73;;;;;;;11.61;100.00;101253.63;5087931;28;20052;-71
2023/01/04 07:56:23;;;;;;;1.08;0.80;;;;;;;11.61;100.00;101248.06;5080775;28;20044;-72
2023/01/04 07:58:55;;;;;;;2.47;0.80;;;;;;;11.65;100.00;101235.81;5071450;28;20057;-72
2023/01/04 08:01:23;;;;;;;2.33;0.93;;;;;;;11.70;100.00;101237.44;5073471;28;20064;-72
2023/01/04 08:03:51;;;;;;;1.30;0.77;;;;;;;11.75;100.00;101235.06;5070172;28;20494;-72
2023/01/04 08:06:20;;;;;;;8.05;0.82;;;;;;;11.84;100.00;101234.69;5075861;28;20147;-72
2023/01/04 08:08:47;;;;;;;2.30;1.08;;;;;;;11.84;100.00;101232.72;5069416;28;20044;-74
2023/01/04 08:11:17;;;;;;;2.15;1.00;;;;;;;11.92;100.00;101219.66;5071269;28;20044;-73
2023/01/04 08:13:44;;;;;;;3.05;1.15;;;;;;;11.90;100.00;101235.88;5072378;28;20053;-71
2023/01/04 08:16:31;;;;;;;3.13;1.38;;;;;;;11.95;100.00;101230.75;5068374;28;20048;-73
2023/01/04 08:19:12;;;;;;;1.77;1.00;;;;;;;12.07;100.00;101230.38;5070758;28;20074;-74
2023/01/04 08:21:39;;;;;;;2.85;1.20;;;;;;;12.08;100.00;101225.63;5070531;28;20170;-74
2023/01/04 08:24:06;;;;;;;2.20;1.35;;;;;;;12.03;100.00;101229.59;5069216;28;20491;-74
2023/01/04 08:26:33;;;;;;;4.43;1.23;;;;;;;12.11;100.00;101225.63;5068760;28;20051;-74
2023/01/04 08:28:59;;;;;;;4.03;1.27;;;;;;;12.10;100.00;101228.78;5069463;28;20466;-71
2023/01/04 08:31:28;;;;;;;0.88;0.70;;;;;;;12.13;100.00;101212.16;5076191;28;20414;-71
2023/01/04 08:33:55;;;;;;;2.38;1.60;;;;;;;12.09;100.00;101216.88;5068792;28;20118;-73
2023/01/04 08:36:23;;;;;;;2.92;0.70;;;;;;;12.18;100.00;101213.72;5068540;28;20049;-72
2023/01/04 08:38:58;;;;;;;3.75;1.00;;;;;;;12.25;100.00;101219.28;5079808;28;20048;-75
2023/01/04 08:41:28;;;;;;;2.20;1.20;;;;;;;12.39;100.00;101206.19;5071215;28;20071;-72
2023/01/04 08:44:15;;;;;;;1.20;0.88;;;;;;;12.33;100.00;101205.03;5070098;28;20056;-73
2023/01/04 08:46:42;;;;;;;5.38;1.58;;;;;;;12.25;100.00;101208.19;5073990;28;20044;-73
2023/01/04 08:49:09;;;;;;;1.13;0.63;;;;;;;12.38;100.00;101196.28;5074007;28;20043;-73
2023/01/04 08:51:35;;;;;;;2.38;0.90;;;;;;;12.50;100.00;101208.97;5073634;28;20052;-71
2023/01/04 08:54:02;;;;;;;3.40;1.20;;;;;;;12.47;100.00;101218.09;5072302;28;20043;-71
2023/01/04 08:56:29;;;;;;;5.65;1.00;;;;;;;12.56;100.00;101190.72;5068665;28;20044;-74
2023/01/04 08:58:55;;;;;;;2.13;0.80;;;;;;;12.49;100.00;101219.25;5073092;28;20044;-74
2023/01/04 09:01:22;;;;;;;1.60;0.80;;;;;;;12.55;100.00;101181.59;5072167;28;20041;-74
2023/01/04 09:03:48;;;;;;;5.68;1.10;;;;;;;12.50;100.00;101204.22;5068584;28;20109;-74
2023/01/04 09:06:15;;;;;;;0.60;0.60;;;;;;;12.60;100.00;101186.75;5076728;28;20040;-73
2023/01/04 09:08:43;;;;;;;4.57;1.08;;;;;;;12.52;100.00;101209.38;5076060;28;20052;-72
2023/01/04 09:11:15;;;;;;;0.95;0.80;;;;;;;12.59;100.00;101189.94;5069116;28;20529;-74
2023/01/04 09:13:42;;;;;;;2.67;0.85;;;;;;;12.54;100.00;101179.22;5068182;28;20056;-73
2023/01/04 09:16:11;;;;;;;0.85;0.60;;;;;;;12.54;100.00;101182.78;5076597;28;20064;-73
2023/01/04 09:18:38;;;;;;;3.35;1.20;;;;;;;12.46;100.00;101178.44;5078032;28;20105;-72
2023/01/04 09:21:10;;;;;;;2.95;0.70;;;;;;;12.48;100.00;101184.38;5073953;28;20043;-74
2023/01/04 09:23:38;;;;;;;2.97;1.00;;;;;;;12.48;100.00;101178.03;5068596;28;20077;-73
2023/01/04 09:26:11;;;;;;;3.53;0.90;;;;;;;12.50;100.00;101173.69;5073090;28;20505;-74
2023/01/04 09:28:38;;;;;;;1.90;1.02;;;;;;;12.38;100.00;101212.13;5068574;28;20139;-72
2023/01/04 09:31:14;;;;;;;2.17;1.00;;;;;;;12.37;100.00;101178.06;5068658;28;20406;-72
2023/01/04 09:33:42;;;;;;;2.38;1.02;;;;;;;12.34;100.00;101189.16;5068500;28;20048;-72
2023/01/04 09:36:28;;;;;;;3.55;1.30;;;;;;;12.31;100.00;101212.13;5068932;28;20410;-72
2023/01/04 09:38:55;;;;;;;2.50;0.93;;;;;;;12.35;100.00;101185.16;5068341;28;20050;-72
2023/01/04 09:41:27;;;;;;;5.00;1.38;;;;;;;12.34;100.00;101208.56;5069919;28;20048;-72
2023/01/04 09:44:10;;;;;;;4.25;1.15;;;;;;;12.49;100.00;101182.41;5074745;28;20079;-71
2023/01/04 09:46:40;;;;;;;1.30;0.70;;;;;;;12.44;100.00;101191.13;5080523;28;20055;-72
2023/01/04 09:49:17;;;;;;;1.77;1.10;;;;;;;12.38;100.00;101193.50;5071967;28;20071;-74
2023/01/04 09:52:10;;;;;;;4.22;1.38;;;;;;;12.47;100.00;101190.31;5066727;28;20040;-71
2023/01/04 09:54:43;;;;;;;3.67;1.38;;;;;;;12.53;100.00;101189.50;5071326;28;20227;-72
2023/01/04 09:57:20;;;;;;;1.85;1.10;;;;;;;12.54;100.00;101204.19;5067914;28;20499;-73
2023/01/04 09:59:50;;;;;;;2.55;0.75;;;;;;;12.71;100.00;101192.25;5070612;28;20513;-74
2023/01/04 10:02:24;;;;;;;2.30;1.17;;;;;;;12.64;100.00;101195.06;5071601;28;20048;-72
2023/01/04 10:04:51;;;;;;;3.42;1.40;;;;;;;12.57;100.00;101201.44;5067268;28;20056;-71
2023/01/04 10:07:27;;;;;;;2.22;1.08;;;;;;;12.52;100.00;101196.25;5069745;28;20036;-73
2023/01/04 10:09:54;;;;;;;1.63;1.17;;;;;;;12.56;100.00;101210.16;5077523;28;20056;-75
2023/01/04 10:13:03;;;;;;;3.47;1.67;;;;;;;12.54;100.00;101193.91;5082331;28;20108;-72
2023/01/04 10:16:15;;;;;;;1.42;0.73;;;;;;;12.52;100.00;101207.38;5068486;28;20506;-74
2023/01/04 10:18:50;;;;;;;3.35;1.00;;;;;;;12.67;100.00;101170.06;5078829;28;20071;-73
2023/01/04 10:21:40;;;;;;;1.48;1.10;;;;;;;12.70;100.00;101179.59;5069428;28;20340;-73
2023/01/04 10:24:13;;;;;;;3.70;1.50;;;;;;;12.74;100.00;101172.84;5070041;28;20052;-75
2023/01/04 10:26:48;;;;;;;7.70;1.60;;;;;;;12.83;100.00;101175.19;5068049;28;20596;-74
2023/01/04 10:29:32;;;;;;;2.17;1.10;;;;;;;12.76;100.00;101180.75;5071848;28;20058;-74
2023/01/04 10:32:17;;;;;;;4.13;1.42;;;;;;;12.60;100.00;101181.19;5074445;28;20842;-72
2023/01/04 10:34:45;;;;;;;5.43;1.50;;;;;;;12.55;100.00;101178.00;5070043;28;20051;-72
2023/01/04 10:37:19;;;;;;;2.40;1.10;;;;;;;12.65;100.00;101160.53;5068376;28;20134;-72
2023/01/04 10:39:50;;;;;;;4.75;1.33;;;;;;;12.39;100.00;101177.66;5067281;28;20503;-72
2023/01/04 10:42:37;;;;;;;2.60;1.17;;;;;;;12.47;100.00;101152.28;5072782;28;20066;-72
2023/01/04 10:45:17;;;;;;;1.55;0.90;;;;;;;12.43;100.00;101159.03;5073784;28;20528;-73
2023/01/04 10:47:49;;;;;;;3.63;1.08;;;;;;;12.42;100.00;101152.66;5079132;28;20056;-74
2023/01/04 10:50:25;;;;;;;1.50;0.90;;;;;;;12.49;100.00;101157.44;5070113;28;20454;-73
2023/01/04 10:53:05;;;;;;;2.15;0.95;;;;;;;12.40;100.00;101168.13;5075543;28;20467;-73
2023/01/04 10:55:58;;;;;;;3.88;1.42;;;;;;;12.40;100.00;101143.97;5070933;28;20052;-71
2023/01/04 10:58:45;;;;;;;5.05;1.48;;;;;;;12.48;100.00;101150.28;5067348;28;20049;-73
2023/01/04 11:01:44;;;;;;;2.75;1.02;;;;;;;12.47;100.00;101140.38;5068155;28;20063;-74
2023/01/04 11:04:39;;;;;;;3.83;1.30;;;;;;;12.55;100.00;101141.94;5062126;28;20507;-73
2023/01/04 11:07:09;;;;;;;3.85;1.52;;;;;;;12.53;100.00;101139.56;5066517;28;20051;-73
2023/01/04 11:09:45;;;;;;;3.25;1.20;;;;;;;12.56;100.00;101135.19;5071635;28;20048;-73
2023/01/04 11:12:15;;;;;;;2.60;1.40;;;;;;;12.46;100.00;101141.56;5078642;28;20048;-73
2023/01/04 11:14:42;;;;;;;5.30;1.50;;;;;;;12.56;100.00;101135.19;5068058;28;20056;-72
2023/01/04 11:17:10;;;;;;;2.58;1.60;;;;;;;12.60;100.00;101122.91;5064765;28;20416;-73
2023/01/04 11:19:38;;;;;;;3.70;1.23;;;;;;;12.56;100.00;101119.31;5068528;28;20125;-73
2023/01/04 11:22:04;;;;;;;2.45;1.33;;;;;;;12.57;100.00;101120.94;5073512;28;20056;-75
2023/01/04 11:24:33;;;;;;;4.88;2.00;;;;;;;12.59;100.00;101112.19;5064788;28;20434;-74
2023/01/04 11:27:06;;;;;;;4.72;1.67;;;;;;;12.62;100.00;101106.63;5072401;28;20098;-74
2023/01/04 11:29:56;;;;;;;5.63;1.55;;;;;;;12.54;100.00;101107.84;5071250;28;20055;-74
2023/01/04 11:32:35;;;;;;;6.55;2.05;;;;;;;12.49;100.00;101115.78;5076996;28;20048;-74
2023/01/04 11:35:02;;;;;;;2.35;1.42;;;;;;;12.39;100.00;101103.50;5071480;28;20049;-74
2023/01/04 11:37:32;;;;;;;7.32;2.35;;;;;;;12.34;100.00;101100.34;5070491;28;20048;-73
2023/01/04 11:40:19;;;;;;;1.77;1.27;;;;;;;12.38;100.00;101101.94;5072692;28;20063;-73
2023/01/04 11:42:48;;;;;;;2.78;1.65;;;;;;;12.40;100.00;101098.75;5073367;28;20424;-72
2023/01/04 11:45:26;;;;;;;3.00;1.60;;;;;;;12.31;100.00;101101.16;5080007;28;20051;-72
2023/01/04 11:47:54;;;;;;;2.70;1.58;;;;;;;12.28;100.00;101107.50;5072211;28;20044;-72
2023/01/04 11:50:40;;;;;;;1.05;0.80;;;;;;;12.35;100.00;101101.94;5085664;28;20059;-71
2023/01/04 11:53:36;;;;;;;7.05;2.17;;;;;;;12.30;100.00;101107.91;5075773;28;20044;-72
2023/01/04 11:56:15;;;;;;;4.60;1.40;;;;;;;12.33;100.00;101099.59;5070377;28;20059;-72
2023/01/04 11:58:44;;;;;;;4.30;2.05;;;;;;;12.19;100.00;101088.47;5074602;28;20611;-71
2023/01/04 12:01:24;;;;;;;3.20;1.63;;;;;;;12.21;100.00;101097.22;5071203;28;20058;-71
2023/01/04 12:03:50;;;;;;;1.35;1.08;;;;;;;12.24;100.00;101074.22;5071864;28;20105;-73
2023/01/04 12:06:30;;;;;;;4.85;2.50;;;;;;;12.24;100.00;101090.06;5066578;28;20055;-73
2023/01/04 12:08:57;;;;;;;4.45;1.60;;;;;;;12.31;100.00;101070.63;5075103;28;20054;-71
2023/01/04 12:11:40;;;;;;;1.80;1.40;;;;;;;12.33;100.00;101085.72;5073933;28;20051;-73
2023/01/04 12:14:20;;;;;;;5.38;2.53;;;;;;;12.29;100.00;101087.69;5079920;28;20050;-75
2023/01/04 12:16:56;;;;;;;3.10;2.28;;;;;;;12.33;100.00;101087.69;5080097;28;20036;-73
2023/01/04 12:19:24;;;;;;;4.13;2.60;;;;;;;12.28;100.00;101085.28;5074482;28;20159;-72
2023/01/04 12:21:54;;;;;;;7.05;2.13;;;;;;;12.30;100.00;101091.25;5082048;28;20056;-73